Terminal Aerodrome Forecast
Issued by NWS

Home | Current Version | Previous Version | Text Only | Print | Product List | Glossary On
Versions: 1 2 3 4 5 6 7 8 9 10 11 12 13 14 15 16 17 18 19 20
000
FTUS44 KLIX 011720
TAFMCB
TAF
KMCB 011720Z 0118/0218 23011KT P6SM VCTS SCT025CB BKN040
     FM012000 26010KT P6SM VCSH SCT030 OVC050
      TEMPO 0120/0122 5SM -TSRA BKN025CB
     FM012200 30010KT P6SM BKN045
     FM012300 33011KT P6SM BKN050
     FM020600 01010KT P6SM BKN200=

USA.gov is the U.S. government's official web portal to all federal, state and local government web resources and services.